createdAt,value
2022-12-18T00:00:12.523Z,42.42
2022-12-18T00:00:25.494Z,42.67
2022-12-18T00:00:59.080Z,42.58
2022-12-18T00:01:32.384Z,42.28
2022-12-18T00:01:46.348Z,41.85
2022-12-18T00:01:59.933Z,40.95
2022-12-18T00:02:13.099Z,39.95
2022-12-18T00:02:25.697Z,39.88
2022-12-18T00:02:39.470Z,40.35
2022-12-18T00:02:53.117Z,38.72
2022-12-18T00:03:06.025Z,38.20
2022-12-18T00:03:18.860Z,37.90
2022-12-18T00:03:32.751Z,37.65
2022-12-18T00:03:46.686Z,38.50
2022-12-18T00:03:59.978Z,38.70
2022-12-18T00:04:21.032Z,38.47
2022-12-18T00:04:33.821Z,38.88
2022-12-18T00:04:46.404Z,39.10
2022-12-18T00:04:59.866Z,39.70
2022-12-18T00:05:12.385Z,39.80
2022-12-18T00:05:25.238Z,39.05
2022-12-18T00:05:37.818Z,38.88
2022-12-18T00:05:52.010Z,39.78
2022-12-18T00:06:04.654Z,39.78
2022-12-18T00:06:18.082Z,39.50
2022-12-18T00:06:31.277Z,39.45
2022-12-18T00:06:44.113Z,40.03
2022-12-18T00:06:57.189Z,40.40
2022-12-18T00:07:10.837Z,40.83
2022-12-18T00:07:23.386Z,41.58
2022-12-18T00:07:36.797Z,42.05
2022-12-18T00:07:49.365Z,42.10
2022-12-18T00:08:02.063Z,42.38
2022-12-18T00:08:15.014Z,41.33
2022-12-18T00:08:28.608Z,41.38
2022-12-18T00:08:41.225Z,41.95
2022-12-18T00:08:54.492Z,41.72
2022-12-18T00:09:07.034Z,41.35
2022-12-18T00:09:20.350Z,41.70
2022-12-18T00:09:40.062Z,42.10
2022-12-18T00:09:53.166Z,41.15
2022-12-18T00:10:08.047Z,40.53
2022-12-18T00:10:20.680Z,41.78
2022-12-18T00:10:33.225Z,42.83
2022-12-18T00:10:46.610Z,43.17
2022-12-18T00:11:07.107Z,43.13
2022-12-18T00:11:21.784Z,42.65
2022-12-18T00:11:34.355Z,43.65
2022-12-18T00:11:47.132Z,45.28
2022-12-18T00:12:29.992Z,46.95
2022-12-18T00:12:42.963Z,48.58
2022-12-18T00:12:55.626Z,50.55
2022-12-18T00:13:10.089Z,53.60
2022-12-18T00:13:23.073Z,55.58
2022-12-18T00:13:37.585Z,59.15
2022-12-18T00:13:51.247Z,61.64
2022-12-18T00:14:03.962Z,61.85
2022-12-18T00:14:16.734Z,62.05
2022-12-18T00:14:29.284Z,61.63
2022-12-18T00:14:41.866Z,62.47
2022-12-18T00:14:56.777Z,63.05
2022-12-18T00:15:10.050Z,62.38
2022-12-18T00:15:22.645Z,62.30
2022-12-18T00:15:35.889Z,63.55
2022-12-18T00:15:48.470Z,62.70
2022-12-18T00:16:03.223Z,61.75
2022-12-18T00:16:19.549Z,61.22
2022-12-18T00:16:34.058Z,61.67
2022-12-18T00:16:47.802Z,61.55
2022-12-18T00:17:01.704Z,61.30
2022-12-18T00:17:14.283Z,60.58
2022-12-18T00:17:26.855Z,59.25
2022-12-18T00:17:40.362Z,58.58
2022-12-18T00:17:52.973Z,57.15
2022-12-18T00:18:05.884Z,55.58
2022-12-18T00:18:20.675Z,55.03
2022-12-18T00:18:33.869Z,55.17
2022-12-18T00:18:46.748Z,54.80
2022-12-18T00:19:02.565Z,54.25
2022-12-18T00:19:16.856Z,54.08
2022-12-18T00:19:29.488Z,54.13
2022-12-18T00:19:42.330Z,55.00
2022-12-18T00:19:54.909Z,56.47
2022-12-18T00:20:09.036Z,56.83
2022-12-18T00:20:26.497Z,56.55
2022-12-18T00:20:41.722Z,57.88
2022-12-18T00:20:54.427Z,57.65
2022-12-18T00:21:09.314Z,57.38
2022-12-18T00:21:22.934Z,57.53
2022-12-18T00:21:35.764Z,57.00
2022-12-18T00:21:48.303Z,56.50
2022-12-18T00:22:01.880Z,56.55
2022-12-18T00:22:14.441Z,57.03
2022-12-18T00:22:27.050Z,57.40
2022-12-18T00:22:39.689Z,57.20
2022-12-18T00:22:52.518Z,56.72
2022-12-18T00:23:05.623Z,56.20
2022-12-18T00:23:18.431Z,54.95
2022-12-18T00:23:32.428Z,54.80
2022-12-18T00:23:48.543Z,55.35
2022-12-18T00:24:01.851Z,55.13
2022-12-18T00:24:14.446Z,55.28
2022-12-18T00:24:27.433Z,56.00
2022-12-18T00:24:40.336Z,56.05
2022-12-18T00:24:52.956Z,54.33
2022-12-18T00:25:07.121Z,54.35
2022-12-18T00:25:19.915Z,58.00
2022-12-18T00:25:33.782Z,61.55
2022-12-18T00:25:46.331Z,62.75
2022-12-18T00:26:00.529Z,61.92
2022-12-18T00:26:18.017Z,61.55
2022-12-18T00:26:32.672Z,58.88
2022-12-18T00:26:46.232Z,56.47
2022-12-18T00:26:58.810Z,56.35
2022-12-18T00:27:11.358Z,56.83
2022-12-18T00:27:23.968Z,56.50
2022-12-18T00:27:36.591Z,56.63
2022-12-18T00:27:49.283Z,56.42
2022-12-18T00:28:01.920Z,56.83
2022-12-18T00:28:14.517Z,57.00
2022-12-18T00:28:27.443Z,56.85
2022-12-18T00:28:41.051Z,57.05
2022-12-18T00:28:54.389Z,56.28
2022-12-18T00:29:09.243Z,56.35
2022-12-18T00:29:21.821Z,56.38
2022-12-18T00:29:34.568Z,56.00
2022-12-18T00:29:48.182Z,56.45
2022-12-18T00:30:02.148Z,56.30
2022-12-18T00:30:15.000Z,55.20
2022-12-18T00:30:27.987Z,55.38
2022-12-18T00:30:40.584Z,55.05
2022-12-18T00:31:01.451Z,54.28
2022-12-18T00:31:15.615Z,53.78
2022-12-18T00:31:28.573Z,54.50
2022-12-18T00:31:43.923Z,54.50
2022-12-18T00:31:56.607Z,53.67
2022-12-18T00:32:09.218Z,52.67
2022-12-18T00:32:21.852Z,52.08
2022-12-18T00:32:34.716Z,52.55
2022-12-18T00:32:47.315Z,52.92
2022-12-18T00:32:59.955Z,52.47
2022-12-18T00:33:13.594Z,51.35
2022-12-18T00:33:26.198Z,51.45
2022-12-18T00:33:40.183Z,51.75
2022-12-18T00:33:55.375Z,52.78
2022-12-18T00:34:10.783Z,52.83
2022-12-18T00:34:23.353Z,52.00
2022-12-18T00:34:37.100Z,51.72
2022-12-18T00:34:49.724Z,51.63
2022-12-18T00:35:02.321Z,52.50
2022-12-18T00:35:14.964Z,53.38
2022-12-18T00:35:27.568Z,52.20
2022-12-18T00:35:40.170Z,51.92
2022-12-18T00:35:52.754Z,52.03
2022-12-18T00:36:08.409Z,52.60
2022-12-18T00:36:23.336Z,52.42
2022-12-18T00:36:36.148Z,52.53
2022-12-18T00:36:49.728Z,53.25
2022-12-18T00:37:02.330Z,52.35
2022-12-18T00:37:19.894Z,51.30
2022-12-18T00:37:35.433Z,50.50
2022-12-18T00:37:48.188Z,50.30
2022-12-18T00:38:00.766Z,50.22
2022-12-18T00:38:14.332Z,50.90
2022-12-18T00:38:26.928Z,52.60
2022-12-18T00:38:40.224Z,53.97
2022-12-18T00:38:55.231Z,53.85
2022-12-18T00:39:09.201Z,53.08
2022-12-18T00:39:22.046Z,52.13
2022-12-18T00:39:34.774Z,52.97
2022-12-18T00:39:49.598Z,54.15
2022-12-18T00:40:02.292Z,53.85
2022-12-18T00:40:14.906Z,51.00
2022-12-18T00:40:28.534Z,49.33
2022-12-18T00:40:41.117Z,49.53
2022-12-18T00:40:53.705Z,50.08
2022-12-18T00:41:07.189Z,50.22
2022-12-18T00:41:34.973Z,48.47
2022-12-18T00:42:06.086Z,46.03
2022-12-18T00:42:37.069Z,43.20
2022-12-18T00:42:58.626Z,42.75
2022-12-18T00:43:11.341Z,43.13
2022-12-18T00:43:24.187Z,43.53
2022-12-18T00:43:37.975Z,43.33
2022-12-18T00:43:50.772Z,43.35
2022-12-18T00:44:03.854Z,42.80
2022-12-18T00:44:19.214Z,42.38
2022-12-18T00:44:31.831Z,42.35
2022-12-18T00:44:45.390Z,43.85
2022-12-18T00:44:57.976Z,45.60
2022-12-18T00:45:13.182Z,47.03
2022-12-18T00:45:27.746Z,49.88
2022-12-18T00:45:40.394Z,52.75
2022-12-18T00:45:54.058Z,53.70
2022-12-18T00:46:07.487Z,53.25
2022-12-18T00:46:21.192Z,53.08
2022-12-18T00:46:34.315Z,53.47
2022-12-18T00:46:48.322Z,55.08
2022-12-18T00:47:00.923Z,56.70
2022-12-18T00:47:13.603Z,58.05
2022-12-18T00:47:26.181Z,58.15
2022-12-18T00:47:38.830Z,58.13
2022-12-18T00:47:51.493Z,57.35
2022-12-18T00:48:05.552Z,57.75
2022-12-18T00:48:18.155Z,58.47
2022-12-18T00:48:30.812Z,58.53
2022-12-18T00:48:43.837Z,58.75
2022-12-18T00:48:56.531Z,60.92
2022-12-18T00:49:09.323Z,63.05
2022-12-18T00:49:22.090Z,63.14
2022-12-18T00:49:35.648Z,61.58
2022-12-18T00:49:48.230Z,60.83
2022-12-18T00:50:01.307Z,63.22
2022-12-18T00:50:13.924Z,64.85
2022-12-18T00:50:27.193Z,63.63
2022-12-18T00:50:39.800Z,61.70
2022-12-18T00:50:52.916Z,61.05
2022-12-18T00:51:05.760Z,61.03
2022-12-18T00:51:19.307Z,61.67
2022-12-18T00:51:32.048Z,61.78
2022-12-18T00:51:45.032Z,61.30
2022-12-18T00:51:57.676Z,62.15
2022-12-18T00:52:10.758Z,63.97
2022-12-18T00:52:23.518Z,66.68
2022-12-18T00:52:37.272Z,67.93
2022-12-18T00:52:49.952Z,69.35
2022-12-18T00:53:02.538Z,70.07
2022-12-18T00:53:15.145Z,69.90
2022-12-18T00:53:27.801Z,69.55
2022-12-18T00:53:40.774Z,68.80
2022-12-18T00:53:54.026Z,68.63
2022-12-18T00:54:06.634Z,67.60
2022-12-18T00:54:20.376Z,66.38
2022-12-18T00:54:33.292Z,66.05
2022-12-18T00:54:45.862Z,66.32
2022-12-18T00:55:03.068Z,66.40
2022-12-18T00:55:19.328Z,66.47
2022-12-18T00:55:33.117Z,67.28
2022-12-18T00:55:46.711Z,66.53
2022-12-18T00:55:59.355Z,64.65
2022-12-18T00:56:11.950Z,63.63
2022-12-18T00:56:25.341Z,63.83
2022-12-18T00:56:48.038Z,62.88
2022-12-18T00:57:01.251Z,59.22
2022-12-18T00:57:13.865Z,57.17
2022-12-18T00:57:26.449Z,57.80
2022-12-18T00:57:39.080Z,57.72
2022-12-18T00:57:54.217Z,57.00
2022-12-18T00:58:06.790Z,55.47
2022-12-18T00:58:19.917Z,54.28
2022-12-18T00:58:32.535Z,53.00
2022-12-18T00:58:45.148Z,53.22
2022-12-18T00:58:57.995Z,53.85
2022-12-18T00:59:10.594Z,53.33
2022-12-18T00:59:24.280Z,52.50
2022-12-18T00:59:36.861Z,51.42
2022-12-18T00:59:49.427Z,50.72
2022-12-18T01:00:02.171Z,51.25
2022-12-18T01:00:18.191Z,50.47
2022-12-18T01:00:30.750Z,48.65
2022-12-18T01:00:43.601Z,47.60
2022-12-18T01:00:56.242Z,46.08
2022-12-18T01:01:09.478Z,44.38
2022-12-18T01:01:23.383Z,44.88
2022-12-18T01:01:36.159Z,45.25
2022-12-18T01:01:49.041Z,44.45
2022-12-18T01:02:01.846Z,44.67
2022-12-18T01:02:14.629Z,43.85
2022-12-18T01:02:27.505Z,44.85
2022-12-18T01:02:40.942Z,45.92
2022-12-18T01:02:54.761Z,45.22
2022-12-18T01:03:07.780Z,43.88
2022-12-18T01:03:20.722Z,43.15
2022-12-18T01:03:33.348Z,42.67
2022-12-18T01:03:47.567Z,43.05
2022-12-18T01:04:01.196Z,43.25
2022-12-18T01:04:15.153Z,43.10
2022-12-18T01:04:27.905Z,42.67
2022-12-18T01:04:40.567Z,42.38
2022-12-18T01:04:53.208Z,42.22
2022-12-18T01:05:06.701Z,42.13
2022-12-18T01:05:19.457Z,42.28
2022-12-18T01:05:32.802Z,41.75
2022-12-18T01:05:45.394Z,42.35
2022-12-18T01:05:59.191Z,43.05
2022-12-18T01:06:13.987Z,43.25
2022-12-18T01:06:26.740Z,42.63
2022-12-18T01:06:39.327Z,42.42
2022-12-18T01:06:52.860Z,42.78
2022-12-18T01:07:05.442Z,42.90
2022-12-18T01:07:18.998Z,43.17
2022-12-18T01:07:31.784Z,44.15
2022-12-18T01:07:44.338Z,44.17
2022-12-18T01:07:57.703Z,43.92
2022-12-18T01:08:10.623Z,43.67
2022-12-18T01:08:23.314Z,43.90
2022-12-18T01:08:36.595Z,44.58
2022-12-18T01:08:49.204Z,45.92
2022-12-18T01:09:03.172Z,46.60
2022-12-18T01:09:16.102Z,46.53
2022-12-18T01:09:28.854Z,46.67
2022-12-18T01:09:41.571Z,46.17
2022-12-18T01:09:54.155Z,45.95
2022-12-18T01:10:08.612Z,45.60
2022-12-18T01:10:21.542Z,45.38
2022-12-18T01:10:35.219Z,46.17
2022-12-18T01:10:47.773Z,46.17
2022-12-18T01:11:00.398Z,45.75
2022-12-18T01:11:15.615Z,46.00
2022-12-18T01:11:28.204Z,46.35
2022-12-18T01:11:41.105Z,46.65
2022-12-18T01:11:53.729Z,46.58
2022-12-18T01:12:08.456Z,46.03
2022-12-18T01:12:21.044Z,45.55
2022-12-18T01:12:34.132Z,45.72
2022-12-18T01:12:46.728Z,46.10
2022-12-18T01:12:59.704Z,47.03
2022-12-18T01:13:12.298Z,47.78
2022-12-18T01:13:24.946Z,47.40
2022-12-18T01:13:37.859Z,46.25
2022-12-18T01:13:51.819Z,45.53
2022-12-18T01:14:05.091Z,45.38
2022-12-18T01:14:17.695Z,45.08
2022-12-18T01:14:30.298Z,44.80
2022-12-18T01:14:42.873Z,44.58
2022-12-18T01:14:55.484Z,44.10
2022-12-18T01:15:10.280Z,44.15
2022-12-18T01:15:24.423Z,44.42
2022-12-18T01:15:37.134Z,44.25
2022-12-18T01:15:50.257Z,44.03
2022-12-18T01:16:02.917Z,43.80
2022-12-18T01:16:17.915Z,42.72
2022-12-18T01:16:32.167Z,41.25
2022-12-18T01:16:45.103Z,41.78
2022-12-18T01:16:57.776Z,42.10
2022-12-18T01:17:10.381Z,41.58
2022-12-18T01:17:23.074Z,41.47
2022-12-18T01:17:35.776Z,41.22
2022-12-18T01:17:48.342Z,40.40
2022-12-18T01:18:01.906Z,40.72
2022-12-18T01:18:14.475Z,40.50
2022-12-18T01:18:27.321Z,40.17
2022-12-18T01:18:40.472Z,39.35
2022-12-18T01:18:54.729Z,38.60
2022-12-18T01:19:07.514Z,38.83
2022-12-18T01:19:20.081Z,39.08
2022-12-18T01:19:32.984Z,39.05
2022-12-18T01:19:45.566Z,38.45
2022-12-18T01:19:59.123Z,39.58
2022-12-18T01:20:13.128Z,40.80
2022-12-18T01:20:25.785Z,41.40
2022-12-18T01:20:39.288Z,40.60
2022-12-18T01:20:52.141Z,40.08
2022-12-18T01:21:07.890Z,40.78
2022-12-18T01:21:21.543Z,40.40
2022-12-18T01:21:34.175Z,40.88
2022-12-18T01:21:46.776Z,42.35
2022-12-18T01:21:59.569Z,42.92
2022-12-18T01:22:12.844Z,42.60
2022-12-18T01:22:25.799Z,43.60
2022-12-18T01:22:38.631Z,46.80
2022-12-18T01:22:51.214Z,48.75
2022-12-18T01:23:03.776Z,48.22
2022-12-18T01:23:16.422Z,47.45
2022-12-18T01:23:30.108Z,46.78
2022-12-18T01:23:43.090Z,46.83
2022-12-18T01:23:57.274Z,48.97
2022-12-18T01:24:13.070Z,51.35
2022-12-18T01:24:25.938Z,50.75
2022-12-18T01:24:38.580Z,48.50
2022-12-18T01:24:51.158Z,46.40
2022-12-18T01:25:06.386Z,45.38
2022-12-18T01:25:19.286Z,44.72
2022-12-18T01:25:31.842Z,44.28
2022-12-18T01:25:44.404Z,43.97
2022-12-18T01:25:56.968Z,43.55
2022-12-18T01:26:11.129Z,43.50
2022-12-18T01:26:25.716Z,44.25
2022-12-18T01:26:38.365Z,44.13
2022-12-18T01:26:50.947Z,43.53
2022-12-18T01:27:03.680Z,43.28
2022-12-18T01:27:16.404Z,42.33
2022-12-18T01:27:29.032Z,42.20
2022-12-18T01:27:41.644Z,42.53
2022-12-18T01:27:55.304Z,43.28
2022-12-18T01:28:07.912Z,42.82
2022-12-18T01:28:20.510Z,42.00
2022-12-18T01:28:33.137Z,41.42
2022-12-18T01:28:45.777Z,42.28
2022-12-18T01:28:59.645Z,43.53
2022-12-18T01:29:12.238Z,46.03
2022-12-18T01:29:24.857Z,48.00
2022-12-18T01:29:37.667Z,50.03
2022-12-18T01:29:50.621Z,53.05
2022-12-18T01:30:04.176Z,51.83
2022-12-18T01:30:16.909Z,48.20
2022-12-18T01:30:30.819Z,45.30
2022-12-18T01:30:44.404Z,43.20
2022-12-18T01:30:56.981Z,41.78
2022-12-18T01:31:14.336Z,40.70
2022-12-18T01:31:28.396Z,39.83
2022-12-18T01:31:41.091Z,38.95
2022-12-18T01:31:56.710Z,38.47
2022-12-18T01:32:09.757Z,38.88
2022-12-18T01:32:24.100Z,39.47
2022-12-18T01:32:36.717Z,39.03
2022-12-18T01:32:49.320Z,39.13
2022-12-18T01:33:02.084Z,39.20
2022-12-18T01:33:14.801Z,39.20
2022-12-18T01:33:27.402Z,39.22
2022-12-18T01:33:40.229Z,39.40
2022-12-18T01:33:54.926Z,39.35
2022-12-18T01:34:07.864Z,39.63
2022-12-18T01:34:20.452Z,39.63
2022-12-18T01:34:33.100Z,39.03
2022-12-18T01:34:45.943Z,38.42
2022-12-18T01:34:58.638Z,38.78
2022-12-18T01:35:11.224Z,39.03
2022-12-18T01:35:24.788Z,39.35
2022-12-18T01:35:41.953Z,38.88
2022-12-18T01:35:54.600Z,38.60
2022-12-18T01:36:07.754Z,38.63
2022-12-18T01:36:22.747Z,39.00
2022-12-18T01:36:37.648Z,39.97
2022-12-18T01:36:53.099Z,40.22
2022-12-18T01:37:06.800Z,39.30
2022-12-18T01:37:19.378Z,39.10
2022-12-18T01:37:32.105Z,39.00
2022-12-18T01:37:44.701Z,39.08
2022-12-18T01:37:57.464Z,39.35
2022-12-18T01:38:10.135Z,39.65
2022-12-18T01:38:24.178Z,39.17
2022-12-18T01:38:36.752Z,38.38
2022-12-18T01:38:50.064Z,38.65
2022-12-18T01:39:08.839Z,39.08
2022-12-18T01:39:21.409Z,38.70
2022-12-18T01:39:34.578Z,38.63
2022-12-18T01:39:47.246Z,39.28
2022-12-18T01:40:00.932Z,39.35
2022-12-18T01:40:13.712Z,39.10
2022-12-18T01:40:26.286Z,38.75
2022-12-18T01:40:38.902Z,38.20
2022-12-18T01:40:58.300Z,38.25
2022-12-18T01:41:11.096Z,38.10
2022-12-18T01:41:48.754Z,38.28
2022-12-18T01:42:03.174Z,38.80
2022-12-18T01:42:17.377Z,39.45
2022-12-18T01:42:30.080Z,39.97
2022-12-18T01:42:42.974Z,40.38
2022-12-18T01:42:55.584Z,39.80
2022-12-18T01:43:10.412Z,39.53
2022-12-18T01:43:23.976Z,39.00
2022-12-18T01:43:47.757Z,39.53
2022-12-18T01:44:00.341Z,42.15
2022-12-18T01:44:45.932Z,42.05
2022-12-18T01:45:03.557Z,43.25
2022-12-18T01:45:25.153Z,43.90
2022-12-18T01:45:39.351Z,45.38
2022-12-18T01:45:52.011Z,46.72
2022-12-18T01:46:04.666Z,44.90
2022-12-18T01:46:19.875Z,43.45
2022-12-18T01:46:33.507Z,43.65
2022-12-18T01:46:46.090Z,43.53
2022-12-18T01:46:58.750Z,43.47
2022-12-18T01:47:15.285Z,43.13
2022-12-18T01:47:33.043Z,43.70
2022-12-18T01:47:49.579Z,43.94
2022-12-18T01:48:04.505Z,45.25
2022-12-18T01:48:17.108Z,49.30
2022-12-18T01:48:30.704Z,54.05
2022-12-18T01:48:44.819Z,54.63
2022-12-18T01:49:00.058Z,52.70
2022-12-18T01:49:12.634Z,52.05
2022-12-18T01:49:25.320Z,51.00
2022-12-18T01:49:37.916Z,49.88
2022-12-18T01:49:50.949Z,47.22
2022-12-18T01:50:07.253Z,45.15
2022-12-18T01:50:24.231Z,44.95
2022-12-18T01:50:40.304Z,44.55
2022-12-18T01:50:52.972Z,44.92
2022-12-18T01:51:07.017Z,45.63
2022-12-18T01:51:19.901Z,44.83
2022-12-18T01:51:34.370Z,44.45
2022-12-18T01:51:47.311Z,43.58
2022-12-18T01:51:59.885Z,43.20
2022-12-18T01:52:12.716Z,42.45
2022-12-18T01:52:27.129Z,42.30
2022-12-18T01:52:44.925Z,42.78
2022-12-18T01:53:01.084Z,42.63
2022-12-18T01:53:17.904Z,41.15
2022-12-18T01:53:30.486Z,39.90
2022-12-18T01:53:45.326Z,39.80
2022-12-18T01:53:59.708Z,39.63
2022-12-18T01:54:12.288Z,39.00
2022-12-18T01:54:24.893Z,39.10
2022-12-18T01:54:37.643Z,39.17
2022-12-18T01:54:51.688Z,39.63
2022-12-18T01:55:08.348Z,40.30
2022-12-18T01:55:24.686Z,39.45
2022-12-18T01:55:42.059Z,39.65
2022-12-18T01:55:57.000Z,39.35
2022-12-18T01:56:13.391Z,39.10
2022-12-18T01:56:27.060Z,39.60
2022-12-18T01:56:39.668Z,39.28
2022-12-18T01:56:52.268Z,39.45
2022-12-18T01:57:05.024Z,40.15
2022-12-18T01:57:17.980Z,40.25
2022-12-18T01:57:30.921Z,40.33
2022-12-18T01:57:43.899Z,40.17
2022-12-18T01:57:58.763Z,39.85
2022-12-18T01:58:12.598Z,39.33
2022-12-18T01:58:31.338Z,38.97
2022-12-18T01:58:51.564Z,40.53
2022-12-18T01:59:09.633Z,41.72
2022-12-18T01:59:22.517Z,41.53
2022-12-18T01:59:36.799Z,41.28
2022-12-18T01:59:53.664Z,40.70
2022-12-18T02:00:10.931Z,40.88
2022-12-18T02:00:24.950Z,40.47
2022-12-18T02:00:39.092Z,40.97
2022-12-18T02:00:52.003Z,41.35
2022-12-18T02:01:06.551Z,40.65
2022-12-18T02:01:19.446Z,40.05
2022-12-18T02:01:33.832Z,39.78
2022-12-18T02:01:46.806Z,39.90
2022-12-18T02:02:02.167Z,40.03
2022-12-18T02:02:16.785Z,40.35
2022-12-18T02:02:31.478Z,40.00
2022-12-18T02:02:45.313Z,39.10
2022-12-18T02:02:58.189Z,39.92
2022-12-18T02:03:12.158Z,40.17
2022-12-18T02:03:24.970Z,39.63
2022-12-18T02:03:38.187Z,39.55
2022-12-18T02:03:51.377Z,38.75
2022-12-18T02:04:21.783Z,39.00
2022-12-18T02:04:34.523Z,40.00
2022-12-18T02:04:49.571Z,41.03
2022-12-18T02:05:05.051Z,41.08
2022-12-18T02:05:20.267Z,40.50
2022-12-18T02:05:43.857Z,40.75
2022-12-18T02:06:03.077Z,41.55
2022-12-18T02:06:20.735Z,41.17
2022-12-18T02:06:39.998Z,41.38
2022-12-18T02:06:59.245Z,42.47
2022-12-18T02:07:18.500Z,42.97
2022-12-18T02:07:41.792Z,43.13
2022-12-18T02:08:04.801Z,44.95
2022-12-18T02:08:23.504Z,42.80
2022-12-18T02:08:44.360Z,41.33
2022-12-18T02:09:08.615Z,40.92
2022-12-18T02:09:28.118Z,41.22
2022-12-18T02:09:47.984Z,41.42
2022-12-18T02:10:08.490Z,40.55
2022-12-18T02:10:28.855Z,40.85
2022-12-18T02:10:49.364Z,43.33
2022-12-18T02:11:07.819Z,44.63
2022-12-18T02:11:32.223Z,45.20
2022-12-18T02:11:54.104Z,45.55
2022-12-18T02:12:20.412Z,45.13
2022-12-18T02:12:41.146Z,45.63
2022-12-18T02:13:01.648Z,45.42
2022-12-18T02:13:22.154Z,46.20
2022-12-18T02:13:45.862Z,46.42
2022-12-18T02:14:09.704Z,48.95
2022-12-18T02:14:30.061Z,47.28
2022-12-18T02:14:49.299Z,47.00
2022-12-18T02:15:09.573Z,46.72
2022-12-18T02:15:31.640Z,47.00
2022-12-18T02:15:52.550Z,45.50
2022-12-18T02:16:15.402Z,44.90
2022-12-18T02:16:33.503Z,44.50
2022-12-18T02:16:54.451Z,44.80
2022-12-18T02:17:12.712Z,45.05
2022-12-18T02:17:33.378Z,45.60
2022-12-18T02:17:51.460Z,45.13
2022-12-18T02:18:09.483Z,45.75
2022-12-18T02:18:27.206Z,44.70
2022-12-18T02:18:44.594Z,44.85
2022-12-18T02:19:02.720Z,44.28
2022-12-18T02:19:30.177Z,44.78
2022-12-18T02:19:56.101Z,45.35
2022-12-18T02:20:15.320Z,44.60
2022-12-18T02:20:34.397Z,45.92
2022-12-18T02:20:50.684Z,46.00
2022-12-18T02:21:14.607Z,45.92
2022-12-18T02:21:36.839Z,46.92
2022-12-18T02:21:58.506Z,45.90
2022-12-18T02:22:26.033Z,46.33
2022-12-18T02:22:48.107Z,45.95
2022-12-18T02:23:12.608Z,44.80
2022-12-18T02:23:43.265Z,45.63
2022-12-18T02:24:05.317Z,45.00
2022-12-18T02:24:30.580Z,43.65
2022-12-18T02:24:51.364Z,42.80
2022-12-18T02:25:18.924Z,42.47
2022-12-18T02:25:44.859Z,40.70
2022-12-18T02:26:08.648Z,38.85
2022-12-18T02:26:27.065Z,36.40
2022-12-18T02:26:45.864Z,37.08
2022-12-18T02:27:01.863Z,36.55
2022-12-18T02:27:14.651Z,36.33
2022-12-18T02:27:29.080Z,36.38
2022-12-18T02:27:45.582Z,35.97
2022-12-18T02:28:01.399Z,36.33
2022-12-18T02:28:18.084Z,36.67
2022-12-18T02:28:36.897Z,36.30
2022-12-18T02:28:54.957Z,37.03
2022-12-18T02:29:13.116Z,38.50
2022-12-18T02:29:29.055Z,38.47
2022-12-18T02:29:45.220Z,39.08
2022-12-18T02:30:00.580Z,38.83
2022-12-18T02:30:15.420Z,38.22
2022-12-18T02:30:31.135Z,38.88
2022-12-18T02:30:46.741Z,40.35
2022-12-18T02:31:02.798Z,40.67
2022-12-18T02:31:19.193Z,41.25
2022-12-18T02:31:36.970Z,40.58
2022-12-18T02:31:53.736Z,40.92
2022-12-18T02:32:13.133Z,41.38
2022-12-18T02:32:33.886Z,41.35
2022-12-18T02:32:49.932Z,41.40
2022-12-18T02:33:06.106Z,41.85
2022-12-18T02:33:22.061Z,41.38
2022-12-18T02:33:37.441Z,40.58
2022-12-18T02:33:51.624Z,40.63
2022-12-18T02:34:08.893Z,40.72
2022-12-18T02:34:27.150Z,40.30
2022-12-18T02:34:41.980Z,39.95
2022-12-18T02:34:57.532Z,40.47
2022-12-18T02:35:16.214Z,40.78
2022-12-18T02:35:31.772Z,40.25
2022-12-18T02:35:47.572Z,39.38
2022-12-18T02:36:01.925Z,38.55
2022-12-18T02:36:16.697Z,38.03
2022-12-18T02:36:31.112Z,37.70
2022-12-18T02:36:46.845Z,37.95
2022-12-18T02:37:02.939Z,37.67
2022-12-18T02:37:20.448Z,37.83
2022-12-18T02:37:35.198Z,38.38
2022-12-18T02:37:48.632Z,37.72
2022-12-18T02:38:05.774Z,38.17
2022-12-18T02:38:18.864Z,37.33
2022-12-18T02:38:32.770Z,36.38
2022-12-18T02:38:46.794Z,36.63
2022-12-18T02:39:01.885Z,36.72
2022-12-18T02:39:16.754Z,36.92
2022-12-18T02:39:32.004Z,37.33
2022-12-18T02:39:47.789Z,37.40
2022-12-18T02:40:01.379Z,37.10
2022-12-18T02:40:15.922Z,37.08
2022-12-18T02:40:29.518Z,37.20
2022-12-18T02:40:44.384Z,37.97
2022-12-18T02:40:58.642Z,38.50
2022-12-18T02:41:14.185Z,38.85
2022-12-18T02:41:27.430Z,38.60
2022-12-18T02:41:40.870Z,38.70
2022-12-18T02:41:53.847Z,39.55
2022-12-18T02:42:09.185Z,38.90
2022-12-18T02:42:22.894Z,37.92
2022-12-18T02:42:35.853Z,38.55
2022-12-18T02:42:48.461Z,38.30
2022-12-18T02:43:04.444Z,37.85
2022-12-18T02:43:17.138Z,36.80
2022-12-18T02:43:31.067Z,36.25
2022-12-18T02:43:52.282Z,36.60
2022-12-18T02:44:10.969Z,36.22
2022-12-18T02:44:23.568Z,37.03
2022-12-18T02:44:36.499Z,37.08
2022-12-18T02:44:51.361Z,36.30
2022-12-18T02:45:04.613Z,35.53
2022-12-18T02:45:18.448Z,35.15
2022-12-18T02:45:31.169Z,35.30
2022-12-18T02:45:48.330Z,35.28
2022-12-18T02:46:22.456Z,36.00
2022-12-18T02:46:38.809Z,35.70
2022-12-18T02:46:54.300Z,35.88
2022-12-18T02:47:07.223Z,35.20
2022-12-18T02:47:22.848Z,35.40
2022-12-18T02:47:38.399Z,36.10
2022-12-18T02:47:51.670Z,36.47
2022-12-18T02:48:04.646Z,36.40
2022-12-18T02:48:18.965Z,36.22
2022-12-18T02:48:34.682Z,35.95
2022-12-18T02:48:47.894Z,37.13
2022-12-18T02:49:10.112Z,37.22
2022-12-18T02:49:33.061Z,35.90
2022-12-18T02:49:56.415Z,35.95
2022-12-18T02:50:15.145Z,36.85
2022-12-18T02:50:35.612Z,38.20
2022-12-18T02:51:00.143Z,38.10
2022-12-18T02:51:23.039Z,37.75
2022-12-18T02:51:47.253Z,38.63
2022-12-18T02:52:09.467Z,38.67
2022-12-18T02:52:32.736Z,39.63
2022-12-18T02:52:56.931Z,40.78
2022-12-18T02:53:18.580Z,39.08
2022-12-18T02:53:39.163Z,39.50
2022-12-18T02:53:57.344Z,39.90
2022-12-18T02:54:17.917Z,40.42
2022-12-18T02:54:44.753Z,41.10
2022-12-18T02:55:08.062Z,44.08
2022-12-18T02:55:33.799Z,42.50
2022-12-18T02:55:57.091Z,41.63
2022-12-18T02:56:18.708Z,40.75
2022-12-18T02:56:36.417Z,39.92
2022-12-18T02:56:55.270Z,40.35
2022-12-18T02:57:17.768Z,39.47
2022-12-18T02:57:37.494Z,39.75
2022-12-18T02:57:55.099Z,38.88
2022-12-18T02:58:17.541Z,37.88
2022-12-18T02:58:40.124Z,39.38
2022-12-18T02:58:59.747Z,39.95
2022-12-18T02:59:16.706Z,39.65
2022-12-18T02:59:36.472Z,38.88
2022-12-18T02:59:57.574Z,37.55
2022-12-18T03:00:14.176Z,38.53
2022-12-18T03:00:32.885Z,38.15
2022-12-18T03:00:55.651Z,38.03
2022-12-18T03:01:14.906Z,38.50
2022-12-18T03:01:37.468Z,39.66
2022-12-18T03:01:57.231Z,39.00
2022-12-18T03:02:20.067Z,40.70
2022-12-18T03:02:40.255Z,41.28
2022-12-18T03:02:59.901Z,41.58
2022-12-18T03:03:17.791Z,41.85
2022-12-18T03:03:37.452Z,41.78
2022-12-18T03:03:56.425Z,41.70
2022-12-18T03:04:17.674Z,39.85
2022-12-18T03:04:35.677Z,39.30
2022-12-18T03:04:56.867Z,39.58
2022-12-18T03:05:15.200Z,40.05
2022-12-18T03:05:34.753Z,41.88
2022-12-18T03:05:51.785Z,42.10
2022-12-18T03:06:10.730Z,41.03
2022-12-18T03:06:26.549Z,40.08
2022-12-18T03:06:42.955Z,39.70
2022-12-18T03:06:58.203Z,40.40
2022-12-18T03:07:17.075Z,40.80
2022-12-18T03:07:39.121Z,40.63
2022-12-18T03:07:58.994Z,42.25
2022-12-18T03:08:15.496Z,42.63
2022-12-18T03:08:30.203Z,42.03
2022-12-18T03:08:46.385Z,41.42
2022-12-18T03:09:02.268Z,40.83
2022-12-18T03:09:21.019Z,41.05
2022-12-18T03:09:37.739Z,41.83
2022-12-18T03:09:54.241Z,40.53
2022-12-18T03:10:10.928Z,39.85
2022-12-18T03:10:28.924Z,40.30
2022-12-18T03:10:52.914Z,38.50
2022-12-18T03:11:08.847Z,36.58
2022-12-18T03:11:41.916Z,35.95
2022-12-18T03:12:16.188Z,35.70
2022-12-18T03:12:34.571Z,37.90
2022-12-18T03:12:53.435Z,38.83
2022-12-18T03:13:09.555Z,39.75
2022-12-18T03:13:32.738Z,40.25
2022-12-18T03:13:50.566Z,40.22
2022-12-18T03:14:07.563Z,41.00
2022-12-18T03:14:23.491Z,39.97
2022-12-18T03:14:39.095Z,38.90
2022-12-18T03:14:56.748Z,37.53
2022-12-18T03:15:17.665Z,37.20
2022-12-18T03:15:34.940Z,38.38
2022-12-18T03:15:51.505Z,37.63
2022-12-18T03:16:07.458Z,36.80
2022-12-18T03:16:26.578Z,37.45
2022-12-18T03:16:42.130Z,38.03
2022-12-18T03:17:00.851Z,37.95
2022-12-18T03:17:19.044Z,38.72
2022-12-18T03:17:34.595Z,40.17
2022-12-18T03:17:54.029Z,41.00
2022-12-18T03:18:16.167Z,41.67